Greenbrier, Arkansas
Current Conditions -  °F | °C
As of 2:28 AM on Thursday 18 Dec 2014 (Local Time) from KLRF Reporting Station
Overcast Overcast  
Wind Chill: -1°   Ceiling: 4900
Heat Index:   Visibility: 10mi
Dew Point:   Wind: 7mph
Humidity: 100%   Direction: 70°ENE
Pressure: 30.22"   Gusts: NA
Location:  35.23°N, 92.39°W
Report Text: KLRF 180828Z AUTO 07006KT 10SM FEW032 OVC049 02/02 A3022 RMK AO2
Loading
Personal Weather Stations






























Interactive Weather Map New forecast layout! Learn more

10-Day Weather Forecast

Advertisements
Track Severe Weather on mobile